createdAt,value
2017-09-29T00:00:39.122Z,77.34
2017-09-29T00:01:49.454Z,77.34
2017-09-29T00:02:59.171Z,77.92
2017-09-29T00:04:09.522Z,77.92
2017-09-29T00:05:19.874Z,77.53
2017-09-29T00:06:30.208Z,77.92
2017-09-29T00:07:41.703Z,77.82
2017-09-29T00:08:51.726Z,77.92
2017-09-29T00:10:02.065Z,77.92
2017-09-29T00:11:12.520Z,77.92
2017-09-29T00:12:22.880Z,77.82
2017-09-29T00:13:33.238Z,77.82
2017-09-29T00:14:43.258Z,77.72
2017-09-29T00:15:53.349Z,77.3
2017-09-29T00:17:03.687Z,77.5
2017-09-29T00:18:13.704Z,77.69
2017-09-29T00:19:24.042Z,77.87
2017-09-29T00:20:34.384Z,77.87
2017-09-29T00:21:44.778Z,77.87
2017-09-29T00:22:54.835Z,77.78
2017-09-29T00:24:05.182Z,77.78
2017-09-29T00:25:15.523Z,77.78
2017-09-29T00:26:25.868Z,77.87
2017-09-29T00:27:35.888Z,77.78
2017-09-29T00:28:46.230Z,77.78
2017-09-29T00:29:56.575Z,77.78
2017-09-29T00:31:06.598Z,77.4
2017-09-29T00:32:16.772Z,77.69
2017-09-29T00:33:26.532Z,77.5
2017-09-29T00:34:36.878Z,77.59
2017-09-29T00:35:46.895Z,77.69
2017-09-29T00:36:57.239Z,77.21
2017-09-29T00:38:08.428Z,77.21
2017-09-29T00:39:18.775Z,77.21
2017-09-29T00:40:28.807Z,77.01
2017-09-29T00:41:39.183Z,77.3
2017-09-29T00:42:49.521Z,77.01
2017-09-29T00:43:59.877Z,77.3
2017-09-29T00:45:10.279Z,77.21
2017-09-29T00:46:19.993Z,77.21
2017-09-29T00:47:30.343Z,77.21
2017-09-29T00:48:40.359Z,77.3
2017-09-29T00:49:50.695Z,77.69
2017-09-29T00:51:01.078Z,77.69
2017-09-29T00:52:11.411Z,77.69
2017-09-29T00:53:21.743Z,77.69
2017-09-29T00:54:32.072Z,77.78
2017-09-29T00:55:42.408Z,77.97
2017-09-29T00:56:52.421Z,77.78
2017-09-29T00:58:02.763Z,77.78
2017-09-29T00:59:13.104Z,77.78
2017-09-29T01:00:23.141Z,77.87
2017-09-29T01:01:33.490Z,77.87
2017-09-29T01:02:43.829Z,77.78
2017-09-29T01:03:54.159Z,77.78
2017-09-29T01:05:04.504Z,77.78
2017-09-29T01:06:14.207Z,77.65
2017-09-29T01:07:24.557Z,77.69
2017-09-29T01:08:34.588Z,77.65
2017-09-29T01:09:44.601Z,77.84
2017-09-29T01:10:54.946Z,78.03
2017-09-29T01:12:04.980Z,77.69
2017-09-29T01:13:15.330Z,77.97
2017-09-29T01:14:25.363Z,77.84
2017-09-29T01:15:35.690Z,77.84
2017-09-29T01:16:45.712Z,77.94
2017-09-29T01:17:55.737Z,77.94
2017-09-29T01:19:06.077Z,77.94
2017-09-29T01:20:16.416Z,77.84
2017-09-29T01:21:26.747Z,78.13
2017-09-29T01:22:36.772Z,78.03
2017-09-29T01:23:47.142Z,77.94
2017-09-29T01:24:57.467Z,77.94
2017-09-29T01:26:07.845Z,78.13
2017-09-29T01:27:17.553Z,77.84
2017-09-29T01:28:27.574Z,77.94
2017-09-29T01:29:37.591Z,78.03
2017-09-29T01:30:47.622Z,77.84
2017-09-29T01:31:57.998Z,77.74
2017-09-29T01:33:08.068Z,77.65
2017-09-29T01:34:18.413Z,78.03
2017-09-29T01:35:28.759Z,77.65
2017-09-29T01:36:38.766Z,77.65
2017-09-29T01:37:48.807Z,78.03
2017-09-29T01:38:58.836Z,77.84
2017-09-29T01:40:08.858Z,77.74
2017-09-29T01:41:19.199Z,77.74
2017-09-29T01:42:29.236Z,77.84
2017-09-29T01:43:39.573Z,77.84
2017-09-29T01:44:49.594Z,78.03
2017-09-29T01:45:59.612Z,77.94
2017-09-29T01:47:09.957Z,77.94
2017-09-29T01:48:21.648Z,77.84
2017-09-29T01:49:31.985Z,77.65
2017-09-29T01:50:42.011Z,77.84
2017-09-29T01:51:52.349Z,78.03
2017-09-29T01:53:02.692Z,77.84
2017-09-29T01:54:12.713Z,77.84
2017-09-29T01:55:23.730Z,78.03
2017-09-29T01:56:34.080Z,78.13
2017-09-29T01:57:44.108Z,78.13
2017-09-29T01:58:54.696Z,77.94
2017-09-29T02:00:05.043Z,78.03
2017-09-29T02:01:15.433Z,78.22
2017-09-29T02:02:25.771Z,77.65
2017-09-29T02:03:35.792Z,77.94
2017-09-29T02:04:45.823Z,77.94
2017-09-29T02:05:55.860Z,77.84
2017-09-29T02:07:05.932Z,77.65
2017-09-29T02:08:16.268Z,77.84
2017-09-29T02:09:26.620Z,78.09
2017-09-29T02:10:36.651Z,78.13
2017-09-29T02:11:46.988Z,77.94
2017-09-29T02:12:57.372Z,78.13
2017-09-29T02:14:07.712Z,78.03
2017-09-29T02:15:18.045Z,77.94
2017-09-29T02:16:28.387Z,78.03
2017-09-29T02:17:38.728Z,77.94
2017-09-29T02:18:48.747Z,78.03
2017-09-29T02:19:59.075Z,78.13
2017-09-29T02:21:09.082Z,78.03
2017-09-29T02:22:19.108Z,77.84
2017-09-29T02:23:29.126Z,77.84
2017-09-29T02:24:39.518Z,78.03
2017-09-29T02:25:49.864Z,77.94
2017-09-29T02:27:00.203Z,77.65
2017-09-29T02:28:10.557Z,77.55
2017-09-29T02:29:20.594Z,77.65
2017-09-29T02:30:30.977Z,77.65
2017-09-29T02:31:40.991Z,77.55
2017-09-29T02:32:51.015Z,77.65
2017-09-29T02:34:01.042Z,77.89
2017-09-29T02:35:11.379Z,77.42
2017-09-29T02:36:21.760Z,77.42
2017-09-29T02:37:31.786Z,77.99
2017-09-29T02:38:42.122Z,77.65
2017-09-29T02:39:52.161Z,77.89
2017-09-29T02:41:02.192Z,77.61
2017-09-29T02:42:12.514Z,77.89
2017-09-29T02:43:22.525Z,77.51
2017-09-29T02:44:32.558Z,77.99
2017-09-29T02:45:42.885Z,77.42
2017-09-29T02:46:53.261Z,77.61
2017-09-29T02:48:03.334Z,77.51
2017-09-29T02:49:13.659Z,77.7
2017-09-29T02:50:23.378Z,77.8
2017-09-29T02:51:33.717Z,77.7
2017-09-29T02:52:43.745Z,77.7
2017-09-29T02:53:54.085Z,77.7
2017-09-29T02:55:04.473Z,77.7
2017-09-29T02:56:14.826Z,77.8
2017-09-29T02:57:25.165Z,77.7
2017-09-29T02:58:35.501Z,77.8
2017-09-29T02:59:45.826Z,77.8
2017-09-29T03:00:56.157Z,77.8
2017-09-29T03:02:06.506Z,77.7
2017-09-29T03:34:11.529Z,75.47
2017-09-29T03:35:21.854Z,75.76
2017-09-29T03:36:32.187Z,76.71
2017-09-29T03:37:42.199Z,77.47
2017-09-29T03:38:52.534Z,78.04
2017-09-29T03:40:01.966Z,77.95
2017-09-29T03:41:12.292Z,78.61
2017-09-29T03:42:22.324Z,78.71
2017-09-29T03:43:32.323Z,78.52
2017-09-29T03:44:42.347Z,79.13
2017-09-29T03:45:52.736Z,79.13
2017-09-29T03:47:02.758Z,78.65
2017-09-29T03:48:13.079Z,78.37
2017-09-29T03:49:23.090Z,78.56
2017-09-29T03:50:33.423Z,78.78
2017-09-29T03:51:43.480Z,78.5
2017-09-29T03:52:53.810Z,78.31
2017-09-29T03:54:03.832Z,78.5
2017-09-29T03:55:14.151Z,78.44
2017-09-29T03:56:24.537Z,78.16
2017-09-29T03:57:34.607Z,78.06
2017-09-29T03:58:44.957Z,78.44
2017-09-29T03:59:55.301Z,77.59
2017-09-29T04:01:05.319Z,77.69
2017-09-29T04:02:15.649Z,78.01
2017-09-29T04:03:25.712Z,78.1
2017-09-29T04:04:35.738Z,78.2
2017-09-29T04:05:45.774Z,77.82
2017-09-29T04:06:55.801Z,78.01
2017-09-29T04:08:06.138Z,77.72
2017-09-29T04:09:16.215Z,77.72
2017-09-29T04:10:26.566Z,77.91
2017-09-29T04:11:36.926Z,77.72
2017-09-29T04:12:47.260Z,77.62
2017-09-29T04:13:57.607Z,77.62
2017-09-29T04:15:07.624Z,77.62
2017-09-29T04:16:17.945Z,77.53
2017-09-29T04:17:27.662Z,77.62
2017-09-29T04:18:38.006Z,77.72
2017-09-29T04:19:48.362Z,77.57
2017-09-29T04:20:58.429Z,77.57
2017-09-29T04:22:08.765Z,77.38
2017-09-29T04:23:19.111Z,77.19
2017-09-29T04:24:28.824Z,77.38
2017-09-29T04:25:39.174Z,77.38
2017-09-29T04:26:49.559Z,77.28
2017-09-29T04:27:59.899Z,77.38
2017-09-29T04:29:10.231Z,77.09
2017-09-29T04:30:20.568Z,77.09
2017-09-29T04:31:30.899Z,77.09
2017-09-29T04:32:40.602Z,77.76
2017-09-29T04:33:50.949Z,77.38
2017-09-29T04:35:01.315Z,77.86
2017-09-29T04:36:11.655Z,77.57
2017-09-29T04:37:22.018Z,77.09
2017-09-29T04:38:32.075Z,77.67
2017-09-29T04:39:42.463Z,77.86
2017-09-29T04:40:52.475Z,77.76
2017-09-29T04:42:02.815Z,77.67
2017-09-29T04:43:12.847Z,77.86
2017-09-29T04:44:23.196Z,77.57
2017-09-29T04:45:33.572Z,77.57
2017-09-29T04:46:43.592Z,77.57
2017-09-29T04:47:53.937Z,77.76
2017-09-29T04:49:04.272Z,77.28
2017-09-29T04:50:14.672Z,77.09
2017-09-29T04:51:25.010Z,77.09
2017-09-29T04:52:35.030Z,77.09
2017-09-29T04:53:45.043Z,77
2017-09-29T04:54:55.374Z,77.09
2017-09-29T04:56:05.400Z,76.9
2017-09-29T04:57:15.744Z,77.09
2017-09-29T04:58:26.107Z,77.19
2017-09-29T04:59:36.451Z,77.19
2017-09-29T05:00:46.780Z,77.19
2017-09-29T05:01:57.120Z,77.47
2017-09-29T05:03:06.507Z,77.28
2017-09-29T05:04:16.858Z,77.19
2017-09-29T05:05:26.564Z,77.32
2017-09-29T05:06:36.901Z,77.51
2017-09-29T05:07:47.002Z,77.19
2017-09-29T05:08:56.703Z,77.13
2017-09-29T05:10:06.737Z,77.03
2017-09-29T05:11:17.061Z,76.94
2017-09-29T05:12:26.760Z,76.94
2017-09-29T05:13:37.128Z,77.13
2017-09-29T05:14:47.462Z,77.32
2017-09-29T05:15:57.788Z,77.03
2017-09-29T05:17:08.178Z,76.84
2017-09-29T05:18:18.520Z,76.84
2017-09-29T05:19:28.545Z,76.94
2017-09-29T05:20:38.891Z,76.94
2017-09-29T05:21:49.257Z,76.84
2017-09-29T05:22:59.599Z,76.94
2017-09-29T05:24:09.937Z,76.84
2017-09-29T05:25:20.319Z,77.13
2017-09-29T05:26:30.659Z,76.84
2017-09-29T05:27:40.997Z,77.13
2017-09-29T05:28:51.025Z,76.5
2017-09-29T05:30:01.368Z,76.79
2017-09-29T05:31:11.754Z,76.69
2017-09-29T05:32:21.781Z,76.69
2017-09-29T05:33:32.107Z,76.69
2017-09-29T05:34:42.455Z,77.08
2017-09-29T05:35:52.173Z,76.98
2017-09-29T05:37:02.499Z,76.31
2017-09-29T05:38:12.513Z,76.5
2017-09-29T05:39:22.543Z,76.6
2017-09-29T05:40:32.892Z,76.79
2017-09-29T05:41:43.221Z,76.5
2017-09-29T05:42:52.925Z,76.69
2017-09-29T05:44:03.293Z,77.01
2017-09-29T05:45:13.620Z,76.54
2017-09-29T05:46:23.955Z,76.35
2017-09-29T05:47:33.982Z,76.64
2017-09-29T05:48:44.334Z,76.35
2017-09-29T05:49:54.678Z,76.45
2017-09-29T05:51:05.031Z,76.45
2017-09-29T05:52:15.371Z,76.64
2017-09-29T05:53:25.713Z,76.57
2017-09-29T05:54:35.743Z,76.57
2017-09-29T05:55:46.086Z,76.67
2017-09-29T05:56:55.788Z,76.2
2017-09-29T05:58:05.803Z,76.57
2017-09-29T05:59:16.150Z,76.48
2017-09-29T06:00:26.504Z,76.48
2017-09-29T06:01:36.521Z,76.48
2017-09-29T06:02:46.853Z,76.39
2017-09-29T06:03:57.198Z,76.52
2017-09-29T06:05:07.550Z,76.62
2017-09-29T06:06:17.261Z,76.81
2017-09-29T06:07:27.588Z,76.81
2017-09-29T06:08:37.923Z,76.81
2017-09-29T06:09:48.262Z,76.52
2017-09-29T06:10:58.585Z,76.62
2017-09-29T06:12:08.972Z,76.42
2017-09-29T06:13:19.313Z,76.42
2017-09-29T06:14:29.360Z,76.62
2017-09-29T06:15:39.749Z,76.42
2017-09-29T06:16:49.759Z,76.52
2017-09-29T06:17:59.782Z,77.04
2017-09-29T06:19:10.122Z,76.75
2017-09-29T06:20:20.459Z,77.04
2017-09-29T06:21:30.480Z,76.65
2017-09-29T06:22:40.857Z,76.65
2017-09-29T06:23:50.883Z,76.84
2017-09-29T06:25:00.902Z,76.75
2017-09-29T06:26:11.269Z,76.65
2017-09-29T06:27:21.605Z,76.75
2017-09-29T06:28:31.947Z,76.65
2017-09-29T06:29:42.297Z,76.65
2017-09-29T06:30:52.671Z,76.69
2017-09-29T06:32:03.007Z,76.69
2017-09-29T06:33:13.409Z,76.89
2017-09-29T06:34:23.736Z,76.79
2017-09-29T06:35:33.775Z,76.4
2017-09-29T06:36:43.793Z,76.79
2017-09-29T06:37:54.137Z,76.89
2017-09-29T06:39:04.477Z,76.89
2017-09-29T06:40:14.500Z,76.89
2017-09-29T06:41:24.868Z,76.92
2017-09-29T06:42:35.203Z,76.73
2017-09-29T06:43:45.540Z,76.44
2017-09-29T06:44:55.942Z,77.02
2017-09-29T06:46:06.317Z,76.64
2017-09-29T06:47:16.670Z,76.54
2017-09-29T06:48:27.008Z,76.73
2017-09-29T06:49:37.339Z,76.73
2017-09-29T06:50:47.745Z,76.64
2017-09-29T06:51:57.764Z,76.73
2017-09-29T06:53:07.783Z,76.64
2017-09-29T06:54:18.141Z,76.73
2017-09-29T06:55:28.471Z,76.64
2017-09-29T06:56:38.539Z,76.67
2017-09-29T06:57:48.891Z,76.67
2017-09-29T06:58:58.929Z,76.67
2017-09-29T07:00:09.282Z,76.77
2017-09-29T07:01:18.977Z,76
2017-09-29T07:02:29.323Z,76.1
2017-09-29T07:03:39.335Z,76.39
2017-09-29T07:04:50.301Z,76.19
2017-09-29T07:06:00.351Z,76.77
2017-09-29T07:07:10.748Z,76.39
2017-09-29T07:08:21.086Z,76.14
2017-09-29T07:09:31.128Z,76.14
2017-09-29T07:10:41.470Z,76.23
2017-09-29T07:11:51.509Z,76.32
2017-09-29T07:13:01.847Z,76.14
2017-09-29T07:14:12.230Z,76.23
2017-09-29T07:15:22.589Z,76.04
2017-09-29T07:16:32.612Z,76.23
2017-09-29T07:17:42.955Z,76.27
2017-09-29T07:18:53.299Z,76.17
2017-09-29T07:20:03.689Z,76.27
2017-09-29T07:21:14.036Z,76.37
2017-09-29T07:22:24.038Z,76.46
2017-09-29T07:23:34.062Z,76.37
2017-09-29T07:24:44.401Z,76.46
2017-09-29T07:25:54.437Z,76.5
2017-09-29T07:27:04.782Z,76.5
2017-09-29T07:28:15.121Z,76.4
2017-09-29T07:29:25.473Z,76.31
2017-09-29T07:30:35.812Z,76.5
2017-09-29T07:31:45.874Z,76.5
2017-09-29T07:32:56.211Z,76.31
2017-09-29T07:34:06.242Z,76.5
2017-09-29T07:35:16.602Z,76.44
2017-09-29T07:36:26.945Z,76.64
2017-09-29T07:37:37.336Z,76.64
2017-09-29T07:38:47.364Z,76.64
2017-09-29T07:39:57.703Z,76.73
2017-09-29T07:41:08.045Z,76.34
2017-09-29T07:42:18.429Z,76.64
2017-09-29T07:43:28.459Z,76.57
2017-09-29T07:44:38.497Z,76.67
2017-09-29T07:45:49.546Z,76.67
2017-09-29T07:47:00.319Z,76.67
2017-09-29T07:48:11.088Z,76.67
2017-09-29T07:49:22.872Z,76.57
2017-09-29T07:50:33.260Z,76
2017-09-29T07:51:43.277Z,76.71
2017-09-29T07:52:53.312Z,76.23
2017-09-29T07:54:03.667Z,76.42
2017-09-29T07:55:13.748Z,76.26
2017-09-29T07:56:24.103Z,76.26
2017-09-29T07:57:34.526Z,76.26
2017-09-29T07:58:45.094Z,76.17
2017-09-29T07:59:55.431Z,76.26
2017-09-29T08:01:05.846Z,76.4
2017-09-29T08:02:15.546Z,76.31
2017-09-29T08:03:25.886Z,76.5
2017-09-29T08:04:36.221Z,76.78
2017-09-29T08:05:46.238Z,76.78
2017-09-29T08:06:56.620Z,76.69
2017-09-29T08:08:06.966Z,76.78
2017-09-29T08:09:17.294Z,76.59
2017-09-29T08:10:27.625Z,76.59
2017-09-29T08:11:37.972Z,76.59
2017-09-29T08:12:48.056Z,76.59
2017-09-29T08:13:58.428Z,76.59
2017-09-29T08:15:08.780Z,76.73
2017-09-29T08:16:18.809Z,76.53
2017-09-29T08:17:29.155Z,76.82
2017-09-29T08:18:39.501Z,76.53
2017-09-29T08:19:49.538Z,76.63
2017-09-29T08:20:59.876Z,76.67
2017-09-29T08:22:10.236Z,76.76
2017-09-29T08:23:20.575Z,76.67
2017-09-29T08:24:30.972Z,76.76
2017-09-29T08:25:41.316Z,76.76
2017-09-29T08:26:51.655Z,76.67
2017-09-29T08:28:02.003Z,76.86
2017-09-29T08:29:12.027Z,76.76
2017-09-29T08:30:22.390Z,76.61
2017-09-29T08:31:32.759Z,76.8
2017-09-29T08:32:42.789Z,76.61
2017-09-29T08:33:53.150Z,76.61
2017-09-29T08:35:03.192Z,76.61
2017-09-29T08:36:13.647Z,76.9
2017-09-29T08:37:23.664Z,76.8
2017-09-29T08:38:34.021Z,76.61
2017-09-29T08:39:44.061Z,77.09
2017-09-29T08:40:54.081Z,76.65
2017-09-29T08:42:04.473Z,76.93
2017-09-29T08:43:14.810Z,76.65
2017-09-29T08:44:25.152Z,76.36
2017-09-29T08:45:35.489Z,76.45
2017-09-29T08:46:45.528Z,76.36
2017-09-29T08:47:55.547Z,76.5
2017-09-29T08:49:05.902Z,76.78
2017-09-29T08:50:16.265Z,76.68
2017-09-29T08:51:26.333Z,76.78
2017-09-29T08:52:36.710Z,76.68
2017-09-29T08:53:47.101Z,76.78
2017-09-29T08:54:57.437Z,76.43
2017-09-29T08:56:07.790Z,76.72
2017-09-29T08:57:18.146Z,76.34
2017-09-29T08:58:28.490Z,76.24
2017-09-29T08:59:38.789Z,76.24
2017-09-29T09:00:49.155Z,76.34
2017-09-29T09:01:59.537Z,76.72
2017-09-29T09:03:09.897Z,76.43
2017-09-29T09:04:19.921Z,76.43
2017-09-29T09:05:30.336Z,76.34
2017-09-29T09:06:40.674Z,76.63
2017-09-29T09:07:50.720Z,77.01
2017-09-29T09:09:01.344Z,76.43
2017-09-29T09:10:11.713Z,76.53
2017-09-29T09:11:22.120Z,76.47
2017-09-29T09:12:32.490Z,76.57
2017-09-29T09:13:42.514Z,76.76
2017-09-29T09:14:52.873Z,76.37
2017-09-29T09:16:03.227Z,76.47
2017-09-29T09:17:13.617Z,76.76
2017-09-29T09:18:23.962Z,76.37
2017-09-29T09:19:33.993Z,76.67
2017-09-29T09:20:44.365Z,76.37
2017-09-29T09:21:54.719Z,76.7
2017-09-29T09:23:05.087Z,76.32
2017-09-29T09:24:15.521Z,76.61
2017-09-29T09:25:25.857Z,76.12
2017-09-29T09:26:36.218Z,76.22
2017-09-29T09:27:46.564Z,76.42
2017-09-29T09:28:56.955Z,76.51
2017-09-29T09:30:07.287Z,76.42
2017-09-29T09:31:17.318Z,76.42
2017-09-29T09:32:27.673Z,76.9
2017-09-29T09:33:38.012Z,76.42
2017-09-29T09:34:48.362Z,76.42
2017-09-29T09:35:58.712Z,76.32
2017-09-29T09:37:09.063Z,76.42
2017-09-29T09:38:19.462Z,76.22
2017-09-29T09:39:29.800Z,76.03
2017-09-29T09:40:40.155Z,76.42
2017-09-29T09:41:50.494Z,76.32
2017-09-29T09:43:00.856Z,76.61
2017-09-29T09:44:09.622Z,76.22
2017-09-29T09:45:19.961Z,76.22
2017-09-29T09:46:30.335Z,76.55
2017-09-29T09:47:40.376Z,76.51
2017-09-29T09:48:50.088Z,76.35
2017-09-29T09:50:00.179Z,76.55
2017-09-29T09:51:10.521Z,76.45
2017-09-29T09:52:20.557Z,76.26
2017-09-29T09:53:30.906Z,76.45
2017-09-29T09:54:41.243Z,76.64
2017-09-29T09:55:51.604Z,76.64
2017-09-29T09:57:01.630Z,76.35
2017-09-29T09:58:24.714Z,76.35
2017-09-29T10:22:56.032Z,76.24
2017-09-29T10:24:08.557Z,76.33
2017-09-29T10:25:18.901Z,76.2
2017-09-29T10:26:30.933Z,76.43
2017-09-29T10:27:41.538Z,76.33
2017-09-29T10:28:53.082Z,76.24
2017-09-29T10:30:04.132Z,76.24
2017-09-29T10:31:14.480Z,76.33
2017-09-29T10:32:24.816Z,76.33
2017-09-29T10:33:38.842Z,76.24
2017-09-29T10:51:42.718Z,76.43
2017-09-29T10:52:53.067Z,76.33
2017-09-29T10:57:53.065Z,76.43
2017-09-29T10:59:05.303Z,76.62
2017-09-29T11:00:16.200Z,76.33
2017-09-29T11:01:26.543Z,76.14
2017-09-29T11:02:36.601Z,76.33
2017-09-29T11:03:46.936Z,75.85
2017-09-29T11:04:56.959Z,75.79
2017-09-29T11:06:06.986Z,76.08
2017-09-29T11:07:17.023Z,76.08
2017-09-29T11:08:27.363Z,76.08
2017-09-29T11:09:38.746Z,75.98
2017-09-29T11:10:48.766Z,75.89
2017-09-29T11:11:59.899Z,75.79
2017-09-29T11:13:12.430Z,75.7
2017-09-29T11:14:22.505Z,75.89
2017-09-29T11:15:32.843Z,75.98
2017-09-29T11:16:43.375Z,75.98
2017-09-29T11:17:53.703Z,76.12
2017-09-29T11:19:04.971Z,76.08
2017-09-29T11:20:15.378Z,76.08
2017-09-29T11:21:25.415Z,75.89
2017-09-29T11:22:35.772Z,75.73
2017-09-29T11:23:47.243Z,75.34
2017-09-29T11:24:57.286Z,75.92
2017-09-29T11:26:07.641Z,76.12
2017-09-29T11:27:17.986Z,76.02
2017-09-29T11:28:28.344Z,76.02
2017-09-29T11:29:39.209Z,75.92
2017-09-29T11:30:50.351Z,75.73
2017-09-29T11:32:00.692Z,75.73
2017-09-29T11:33:11.036Z,75.83
2017-09-29T11:34:21.393Z,76.02
2017-09-29T11:35:31.098Z,75.83
2017-09-29T11:36:41.150Z,75.92
2017-09-29T11:37:51.533Z,75.83
2017-09-29T11:39:01.544Z,76.12
2017-09-29T11:40:11.591Z,76.02
2017-09-29T11:41:21.918Z,76.02
2017-09-29T11:42:32.284Z,76.02
2017-09-29T11:43:42.317Z,75.92
2017-09-29T11:44:52.650Z,75.83
2017-09-29T11:46:02.380Z,75.73
2017-09-29T11:47:12.737Z,75.83
2017-09-29T11:48:22.771Z,75.83
2017-09-29T11:49:33.123Z,76.45
2017-09-29T11:50:43.474Z,76.31
2017-09-29T11:51:53.829Z,75.87
2017-09-29T11:53:04.202Z,75.92
2017-09-29T11:54:14.544Z,75.96
2017-09-29T11:55:24.894Z,75.92
2017-09-29T11:56:34.931Z,75.96
2017-09-29T11:57:45.281Z,75.57
2017-09-29T11:58:55.654Z,76.06
2017-09-29T12:00:05.706Z,75.28
2017-09-29T12:01:16.105Z,75.38
2017-09-29T12:02:26.132Z,75.28
2017-09-29T12:03:37.111Z,75.28
2017-09-29T12:04:47.571Z,75.28
2017-09-29T12:05:58.054Z,75.38
2017-09-29T12:07:08.453Z,75.38
2017-09-29T12:08:18.804Z,75.48
2017-09-29T12:09:29.404Z,75.48
2017-09-29T12:10:39.449Z,75.48
2017-09-29T12:11:49.805Z,75.23
2017-09-29T12:13:00.153Z,75.32
2017-09-29T12:14:10.781Z,75.28
2017-09-29T12:15:22.150Z,75.28
2017-09-29T12:16:32.508Z,76.35
2017-09-29T12:17:42.883Z,75.87
2017-09-29T12:18:53.301Z,75.87
2017-09-29T12:20:03.668Z,76.25
2017-09-29T12:21:16.262Z,76.06
2017-09-29T12:22:30.579Z,76.15
2017-09-29T12:23:44.591Z,76.15
2017-09-29T12:24:58.958Z,75.77
2017-09-29T12:26:12.678Z,75.96
2017-09-29T12:27:23.046Z,75.96
2017-09-29T12:28:33.413Z,76.25
2017-09-29T12:29:43.771Z,75.28
2017-09-29T12:30:54.147Z,75.38
2017-09-29T12:32:03.867Z,74.99
2017-09-29T12:33:13.898Z,75.38
2017-09-29T12:34:24.298Z,75.48
2017-09-29T12:35:34.715Z,75.48
2017-09-29T12:36:44.768Z,75.09
2017-09-29T12:37:54.838Z,75.38
2017-09-29T12:39:04.580Z,75.28
2017-09-29T12:40:14.929Z,75.38
2017-09-29T12:41:25.328Z,74.9
2017-09-29T12:42:35.775Z,75.28
2017-09-29T12:43:45.794Z,74.99
2017-09-29T12:44:56.140Z,75.19
2017-09-29T12:46:06.504Z,75.19
2017-09-29T12:47:16.544Z,75.09
2017-09-29T12:48:26.937Z,74.99
2017-09-29T12:49:37.298Z,75.57
2017-09-29T12:50:48.507Z,76.06
2017-09-29T12:51:58.552Z,75.87
2017-09-29T12:53:08.967Z,75.77
2017-09-29T12:54:18.975Z,75.96
2017-09-29T12:55:29.019Z,75.87
2017-09-29T12:56:40.091Z,75.96
2017-09-29T12:57:51.260Z,76.15
2017-09-29T12:59:01.679Z,76.06
2017-09-29T13:00:12.038Z,76.06
2017-09-29T13:01:22.384Z,76.15
2017-09-29T13:02:32.740Z,75.28
2017-09-29T13:03:43.094Z,75.28
2017-09-29T13:04:53.485Z,75.38
2017-09-29T13:06:03.862Z,75.38
2017-09-29T13:07:14.230Z,75.57
2017-09-29T13:08:24.297Z,75.19
2017-09-29T13:09:34.641Z,75.48
2017-09-29T13:10:45.049Z,75.42
2017-09-29T13:11:55.399Z,75.81
2017-09-29T13:13:05.774Z,75.96
2017-09-29T13:14:15.808Z,75.96
2017-09-29T13:15:26.156Z,76.25
2017-09-29T13:16:36.305Z,75.67
2017-09-29T13:17:46.670Z,76.15
2017-09-29T13:18:57.038Z,76.39
2017-09-29T13:20:07.410Z,75.96
2017-09-29T13:21:17.445Z,75.87
2017-09-29T13:22:27.830Z,76.06
2017-09-29T13:23:37.542Z,76.15
2017-09-29T13:24:47.576Z,75.03
2017-09-29T13:25:57.936Z,75.13
2017-09-29T13:27:08.290Z,75.32
2017-09-29T13:28:18.656Z,75.32
2017-09-29T13:29:29.009Z,75.42
2017-09-29T13:30:39.373Z,76.45
2017-09-29T13:31:49.736Z,77.28
2017-09-29T13:33:00.102Z,76.7
2017-09-29T13:34:10.477Z,76.6
2017-09-29T13:35:20.844Z,76.7
2017-09-29T13:36:30.612Z,76.7
2017-09-29T13:37:40.977Z,77.28
2017-09-29T13:39:03.476Z,76.76
2017-09-29T13:40:13.507Z,76.28
2017-09-29T13:41:23.892Z,76.7
2017-09-29T13:42:34.271Z,76.51
2017-09-29T13:43:45.111Z,76.7
2017-09-29T13:44:55.601Z,76.6
2017-09-29T13:46:05.983Z,76.51
2017-09-29T13:47:17.301Z,76.31
2017-09-29T13:48:28.067Z,76.51
2017-09-29T13:49:38.448Z,76.56
2017-09-29T13:50:48.489Z,76.37
2017-09-29T13:51:58.868Z,76.46
2017-09-29T13:53:09.233Z,76.46
2017-09-29T13:54:19.581Z,76.6
2017-09-29T13:55:30.015Z,76.66
2017-09-29T13:56:40.360Z,76.46
2017-09-29T13:57:50.393Z,76.46
2017-09-29T13:59:00.437Z,76.46
2017-09-29T14:00:10.763Z,76.66
2017-09-29T14:01:20.821Z,76.66
2017-09-29T14:02:30.881Z,76.46
2017-09-29T14:03:41.254Z,76.66
2017-09-29T14:04:51.284Z,76.66
2017-09-29T14:06:01.641Z,76.18
2017-09-29T14:07:12.630Z,76.56
2017-09-29T14:08:22.665Z,76.37
2017-09-29T14:09:33.022Z,76.66
2017-09-29T14:10:43.397Z,76.28
2017-09-29T14:11:53.740Z,76.37
2017-09-29T14:13:03.822Z,76.18
2017-09-29T14:14:13.856Z,76.56
2017-09-29T14:15:24.255Z,76.37
2017-09-29T14:16:34.308Z,76.28
2017-09-29T14:17:43.689Z,76.95
2017-09-29T14:18:54.431Z,76.91
2017-09-29T14:20:04.819Z,76.91
2017-09-29T14:21:14.539Z,76.72
2017-09-29T14:22:24.915Z,76.72
2017-09-29T14:23:35.284Z,76.62
2017-09-29T14:24:45.376Z,77.11
2017-09-29T14:25:55.725Z,77.11
2017-09-29T14:27:06.180Z,77.2
2017-09-29T14:28:16.237Z,76.91
2017-09-29T14:29:26.287Z,76.87
2017-09-29T14:30:36.727Z,77.07
2017-09-29T14:31:47.092Z,76.78
2017-09-29T14:32:57.146Z,77.01
2017-09-29T14:34:07.491Z,76.87
2017-09-29T14:35:17.847Z,76.87
2017-09-29T14:36:29.206Z,76.87
2017-09-29T14:37:39.270Z,76.97
2017-09-29T14:38:49.000Z,77.17
2017-09-29T14:39:59.392Z,77.07
2017-09-29T14:41:09.683Z,76.97
2017-09-29T14:42:20.115Z,76.59
2017-09-29T14:43:30.196Z,76.78
2017-09-29T14:44:40.555Z,76.68
2017-09-29T14:45:50.908Z,77.26
2017-09-29T14:47:01.269Z,77.45
2017-09-29T14:48:11.626Z,76.97
2017-09-29T14:49:21.986Z,76.87
2017-09-29T14:50:32.418Z,77.03
2017-09-29T14:51:43.097Z,77.32
2017-09-29T14:52:53.864Z,77.42
2017-09-29T14:54:04.239Z,77.9
2017-09-29T14:55:14.708Z,77.42
2017-09-29T14:56:25.095Z,77.38
2017-09-29T14:57:35.459Z,77.42
2017-09-29T14:58:45.841Z,77.67
2017-09-29T14:59:56.227Z,77.28
2017-09-29T15:01:06.603Z,77.19
2017-09-29T15:02:16.961Z,77.57
2017-09-29T15:03:27.003Z,77.57
2017-09-29T15:04:37.395Z,77.57
2017-09-29T15:05:47.746Z,77.67
2017-09-29T15:06:58.111Z,77.57
2017-09-29T15:08:08.479Z,77.76
2017-09-29T15:09:18.811Z,77.67
2017-09-29T15:10:29.218Z,77.86
2017-09-29T15:11:39.586Z,77.76
2017-09-29T15:12:49.959Z,78.21
2017-09-29T15:14:00.314Z,78.31
2017-09-29T15:15:10.358Z,78.31
2017-09-29T15:16:20.773Z,78.21
2017-09-29T15:17:31.361Z,78.21
2017-09-29T15:18:41.404Z,78.41
2017-09-29T15:19:51.745Z,78.11
2017-09-29T15:21:02.094Z,78.02
2017-09-29T15:22:12.513Z,78.31
2017-09-29T15:23:23.901Z,78.46
2017-09-29T15:24:34.258Z,78.08
2017-09-29T15:25:44.609Z,78.46
2017-09-29T15:26:54.959Z,77.98
2017-09-29T15:28:05.359Z,78.08
2017-09-29T15:29:15.398Z,78.17
2017-09-29T15:30:25.748Z,78.17
2017-09-29T15:31:36.105Z,77.98
2017-09-29T15:32:46.465Z,77.98
2017-09-29T15:33:56.558Z,78.08
2017-09-29T15:35:06.916Z,77.94
2017-09-29T15:36:16.642Z,77.94
2017-09-29T15:37:27.007Z,78.42
2017-09-29T15:38:37.085Z,78.61
2017-09-29T15:39:47.470Z,78.61
2017-09-29T15:40:57.822Z,78.48
2017-09-29T15:42:07.870Z,78.29
2017-09-29T15:43:18.285Z,78.38
2017-09-29T15:44:28.641Z,78.67
2017-09-29T15:45:39.001Z,78.77
2017-09-29T15:46:49.086Z,78.58
2017-09-29T15:47:59.177Z,78.63
2017-09-29T15:49:09.232Z,78.83
2017-09-29T15:50:19.597Z,78.63
2017-09-29T15:51:29.969Z,78.73
2017-09-29T15:52:40.557Z,79.11
2017-09-29T15:53:50.900Z,78.73
2017-09-29T15:55:00.924Z,79.02
2017-09-29T15:56:11.273Z,79.02
2017-09-29T15:57:21.392Z,78.92
2017-09-29T15:58:31.729Z,78.88
2017-09-29T15:59:41.809Z,78.79
2017-09-29T16:00:51.842Z,78.69
2017-09-29T16:02:01.887Z,78.59
2017-09-29T16:03:12.236Z,78.79
2017-09-29T16:04:22.586Z,78.69
2017-09-29T16:05:32.924Z,78.59
2017-09-29T16:06:43.293Z,78.46
2017-09-29T16:07:53.643Z,78.46
2017-09-29T16:09:03.232Z,78.65
2017-09-29T16:10:13.277Z,78.75
2017-09-29T16:11:23.614Z,78.65
2017-09-29T16:12:33.996Z,79.43
2017-09-29T16:13:44.041Z,78.61
2017-09-29T16:14:54.451Z,78.61
2017-09-29T16:16:04.502Z,78.81
2017-09-29T16:17:14.876Z,79.38
2017-09-29T16:18:25.246Z,79.19
2017-09-29T16:19:35.600Z,79.1
2017-09-29T16:20:45.636Z,79.19
2017-09-29T16:21:55.353Z,79.19
2017-09-29T16:23:05.693Z,79
2017-09-29T16:24:15.573Z,79